Terminal Aerodrome Forecast
Issued by NWS Cleveland, OH

Home | Current Version | Previous Version | Text Only | Print | Product List | Glossary On
Versions: 1 2 3 4 5 6 7 8 9 10 11 12 13 14 15 16 17 18 19
000
FTUS41 KCLE 271200 CCA
TAFYNG
TAF COR
KYNG 271218Z 2712/2812 32008KT 6SM -SHSN OVC035
     FM271600 30008KT P6SM OVC025
     FM272300 30008KT P6SM OVC012
      TEMPO 2723/2802 3SM -SHSN=

USA.gov is the U.S. government's official web portal to all federal, state and local government web resources and services.